createdAt,value
2019-05-10T00:00:20.819Z,10.30
2019-05-10T00:03:08.849Z,9.70
2019-05-10T00:05:56.996Z,10.27
2019-05-10T00:08:44.949Z,10.17
2019-05-10T00:11:35.727Z,9.27
2019-05-10T00:14:36.045Z,11.07
2019-05-10T00:17:20.772Z,9.50
2019-05-10T00:19:51.622Z,11.23
2019-05-10T00:22:22.657Z,10.13
2019-05-10T00:25:02.958Z,10.33
2019-05-10T00:27:25.550Z,11.47
2019-05-10T00:29:56.079Z,11.50
2019-05-10T00:32:28.090Z,10.90
2019-05-10T00:34:59.285Z,10.67
2019-05-10T00:37:29.937Z,11.40
2019-05-10T00:40:00.491Z,12.37
2019-05-10T00:42:31.295Z,11.63
2019-05-10T00:45:02.002Z,12.30
2019-05-10T00:47:33.739Z,13.80
2019-05-10T00:50:04.413Z,11.80
2019-05-10T00:52:34.937Z,14.20
2019-05-10T00:55:17.856Z,14.10
2019-05-10T00:57:38.296Z,15.63
2019-05-10T01:00:09.818Z,14.10
2019-05-10T01:02:40.519Z,15.20
2019-05-10T01:05:11.297Z,16.60
2019-05-10T01:07:41.812Z,14.20
2019-05-10T01:10:12.475Z,12.93
2019-05-10T01:12:43.413Z,13.80
2019-05-10T01:15:14.245Z,12.90
2019-05-10T01:17:45.278Z,13.60
2019-05-10T01:20:16.082Z,13.73
2019-05-10T01:22:46.625Z,13.10
2019-05-10T01:25:17.349Z,13.30
2019-05-10T01:27:48.050Z,13.30
2019-05-10T01:30:18.731Z,14.20
2019-05-10T01:32:49.530Z,13.47
2019-05-10T01:35:20.305Z,13.40
2019-05-10T01:37:51.013Z,12.87
2019-05-10T01:40:21.667Z,13.40
2019-05-10T01:42:52.730Z,14.93
2019-05-10T01:45:23.502Z,16.23
2019-05-10T01:47:55.612Z,14.37
2019-05-10T01:50:26.231Z,14.90
2019-05-10T01:52:56.903Z,15.13
2019-05-10T01:55:27.632Z,15.27
2019-05-10T01:57:58.338Z,14.97
2019-05-10T02:00:29.015Z,13.67
2019-05-10T02:03:00.103Z,12.23
2019-05-10T02:05:30.724Z,10.67
2019-05-10T02:08:01.383Z,11.17
2019-05-10T02:10:31.939Z,11.83
2019-05-10T02:13:02.835Z,11.00
2019-05-10T02:15:33.462Z,11.77
2019-05-10T02:18:04.094Z,10.33
2019-05-10T02:20:35.701Z,11.47
2019-05-10T02:23:06.651Z,11.20
2019-05-10T02:25:37.380Z,10.70
2019-05-10T02:28:08.267Z,11.60
2019-05-10T02:30:39.378Z,10.37
2019-05-10T02:33:09.906Z,11.07
2019-05-10T02:35:40.849Z,10.80
2019-05-10T02:38:11.513Z,10.57
2019-05-10T02:40:42.295Z,10.87
2019-05-10T02:43:12.925Z,9.40
2019-05-10T02:45:43.785Z,10.63
2019-05-10T02:48:14.524Z,10.20
2019-05-10T02:50:45.441Z,10.40
2019-05-10T02:53:16.009Z,9.90
2019-05-10T02:55:47.579Z,9.57
2019-05-10T02:58:18.353Z,10.10
2019-05-10T03:00:50.768Z,9.90
2019-05-10T03:03:25.582Z,9.87
2019-05-10T03:05:57.439Z,9.30
2019-05-10T03:08:30.990Z,10.63
2019-05-10T03:11:01.682Z,9.27
2019-05-10T03:13:34.032Z,10.30
2019-05-10T03:16:05.146Z,9.27
2019-05-10T03:18:35.508Z,10.53
2019-05-10T03:21:08.120Z,9.50
2019-05-10T03:23:38.468Z,9.90
2019-05-10T03:26:09.084Z,9.00
2019-05-10T03:28:39.666Z,9.07
2019-05-10T03:31:10.567Z,8.63
2019-05-10T03:33:41.389Z,9.90
2019-05-10T03:36:12.298Z,9.40
2019-05-10T03:38:43.102Z,10.00
2019-05-10T03:41:14.319Z,9.13
2019-05-10T03:43:44.942Z,9.20
2019-05-10T03:46:15.441Z,9.90
2019-05-10T03:48:46.050Z,8.67
2019-05-10T03:51:16.841Z,8.90
2019-05-10T03:53:47.526Z,9.20
2019-05-10T03:56:19.291Z,9.60
2019-05-10T03:58:49.843Z,9.20
2019-05-10T04:01:20.968Z,10.10
2019-05-10T04:03:51.757Z,8.80
2019-05-10T04:06:22.327Z,8.20
2019-05-10T04:08:53.928Z,9.23
2019-05-10T04:11:24.591Z,9.57
2019-05-10T04:13:56.547Z,9.80
2019-05-10T04:16:28.216Z,8.73
2019-05-10T04:18:58.955Z,9.40
2019-05-10T04:21:29.864Z,8.80
2019-05-10T04:24:00.701Z,8.70
2019-05-10T04:26:31.374Z,9.60
2019-05-10T04:29:01.862Z,9.47
2019-05-10T04:31:32.823Z,9.60
2019-05-10T04:34:04.694Z,9.80
2019-05-10T04:36:35.316Z,9.07
2019-05-10T04:39:07.015Z,10.00
2019-05-10T04:41:37.534Z,9.00
2019-05-10T04:44:08.147Z,9.43
2019-05-10T04:46:38.737Z,8.80
2019-05-10T04:49:09.286Z,8.60
2019-05-10T04:51:39.975Z,9.17
2019-05-10T04:54:11.373Z,9.10
2019-05-10T04:56:42.207Z,10.73
2019-05-10T04:59:12.959Z,9.80
2019-05-10T05:01:43.760Z,9.90
2019-05-10T05:04:14.413Z,10.47
2019-05-10T05:06:45.957Z,9.33
2019-05-10T05:09:16.802Z,9.80
2019-05-10T05:11:47.645Z,9.20
2019-05-10T05:14:18.444Z,9.27
2019-05-10T05:16:49.166Z,8.23
2019-05-10T05:19:19.631Z,8.37
2019-05-10T05:21:50.315Z,8.50
2019-05-10T05:24:22.914Z,8.20
2019-05-10T05:26:53.379Z,9.13
2019-05-10T05:29:26.319Z,9.70
2019-05-10T05:32:01.148Z,9.30
2019-05-10T05:34:31.069Z,9.23
2019-05-10T05:37:01.658Z,9.80
2019-05-10T05:39:32.160Z,9.20
2019-05-10T05:42:02.893Z,9.10
2019-05-10T05:44:33.947Z,10.40
2019-05-10T05:47:04.980Z,10.47
2019-05-10T05:49:36.912Z,9.03
2019-05-10T05:52:07.492Z,8.90
2019-05-10T05:54:39.560Z,9.23
2019-05-10T05:57:10.163Z,9.27
2019-05-10T05:59:40.788Z,8.20
2019-05-10T06:02:11.385Z,9.00
2019-05-10T06:04:46.247Z,8.10
2019-05-10T06:07:14.429Z,7.43
2019-05-10T06:09:46.418Z,7.67
2019-05-10T06:12:16.919Z,8.33
2019-05-10T06:14:49.726Z,8.57
2019-05-10T06:17:23.765Z,7.70
2019-05-10T06:19:52.428Z,8.70
2019-05-10T06:22:22.925Z,8.60
2019-05-10T06:24:55.713Z,8.67
2019-05-10T06:27:26.621Z,8.87
2019-05-10T06:29:57.795Z,8.97
2019-05-10T06:32:28.801Z,9.20
2019-05-10T06:34:59.446Z,8.60
2019-05-10T06:37:31.444Z,8.97
2019-05-10T06:40:02.192Z,8.97
2019-05-10T06:42:34.614Z,9.27
2019-05-10T06:45:14.474Z,9.97
2019-05-10T06:47:41.870Z,9.03
2019-05-10T06:50:15.925Z,9.40
2019-05-10T06:52:46.478Z,9.70
2019-05-10T06:55:17.702Z,9.27
2019-05-10T06:57:50.500Z,9.30
2019-05-10T07:00:21.086Z,9.33
2019-05-10T07:02:52.040Z,8.50
2019-05-10T07:05:23.092Z,9.30
2019-05-10T07:07:53.912Z,8.00
2019-05-10T07:10:25.408Z,8.53
2019-05-10T07:12:57.311Z,10.33
2019-05-10T07:15:30.034Z,9.50
2019-05-10T07:18:01.685Z,10.33
2019-05-10T07:20:33.610Z,10.30
2019-05-10T07:23:05.999Z,10.13
2019-05-10T07:25:37.781Z,9.60
2019-05-10T07:28:15.509Z,9.30
2019-05-10T07:30:42.820Z,10.50
2019-05-10T07:33:14.447Z,9.30
2019-05-10T07:35:44.856Z,9.00
2019-05-10T07:38:15.249Z,10.23
2019-05-10T07:40:45.893Z,10.10
2019-05-10T07:43:24.666Z,9.20
2019-05-10T07:45:48.358Z,9.60
2019-05-10T07:48:19.257Z,9.23
2019-05-10T07:50:51.980Z,9.03
2019-05-10T07:53:25.035Z,8.90
2019-05-10T07:55:59.800Z,9.23
2019-05-10T07:58:26.763Z,8.57
2019-05-10T08:00:57.187Z,8.07
2019-05-10T08:03:29.801Z,8.77
2019-05-10T08:06:02.086Z,8.60
2019-05-10T08:08:31.933Z,8.70
2019-05-10T08:11:02.871Z,8.97
2019-05-10T08:13:33.196Z,8.90
2019-05-10T08:16:05.373Z,10.03
2019-05-10T08:18:35.663Z,9.37
2019-05-10T08:21:18.744Z,8.90
2019-05-10T08:23:38.125Z,8.50
2019-05-10T08:26:11.094Z,8.50
2019-05-10T08:28:44.488Z,8.17
2019-05-10T08:31:13.045Z,7.33
2019-05-10T08:33:52.513Z,8.37
2019-05-10T08:36:15.430Z,7.80
2019-05-10T08:38:56.271Z,8.47
2019-05-10T08:41:18.553Z,7.80
2019-05-10T08:43:49.095Z,8.30
2019-05-10T08:46:29.181Z,8.73
2019-05-10T08:48:53.879Z,7.23
2019-05-10T08:51:25.870Z,7.90
2019-05-10T08:53:58.330Z,8.70
2019-05-10T08:56:28.909Z,8.80
2019-05-10T08:58:59.418Z,8.30
2019-05-10T09:01:31.420Z,7.87
2019-05-10T09:04:06.885Z,9.00
2019-05-10T09:06:35.078Z,8.43
2019-05-10T09:09:08.418Z,8.10
2019-05-10T09:11:43.967Z,8.97
2019-05-10T09:14:19.755Z,8.43
2019-05-10T09:16:54.514Z,8.50
2019-05-10T09:19:18.997Z,8.40
2019-05-10T09:21:52.826Z,8.60
2019-05-10T09:24:22.894Z,8.73
2019-05-10T09:26:57.141Z,8.63
2019-05-10T09:29:32.177Z,8.30
2019-05-10T09:32:03.759Z,8.83
2019-05-10T09:34:33.186Z,8.83
2019-05-10T09:37:08.306Z,9.03
2019-05-10T09:39:36.183Z,9.27
2019-05-10T09:42:11.057Z,9.60
2019-05-10T09:44:40.633Z,9.93
2019-05-10T09:47:12.071Z,10.27
2019-05-10T09:49:46.869Z,9.60
2019-05-10T09:52:18.774Z,9.40
2019-05-10T09:54:49.561Z,9.60
2019-05-10T09:57:20.287Z,10.17
2019-05-10T09:59:52.760Z,9.40
2019-05-10T10:02:28.475Z,9.80
2019-05-10T10:04:58.657Z,10.30
2019-05-10T10:07:33.175Z,10.20
2019-05-10T10:10:00.689Z,10.30
2019-05-10T10:12:31.468Z,10.33
2019-05-10T10:15:02.283Z,10.00
2019-05-10T10:17:38.687Z,11.27
2019-05-10T10:20:08.172Z,10.60
2019-05-10T10:22:38.503Z,11.70
2019-05-10T10:25:09.516Z,11.00
2019-05-10T10:27:40.443Z,12.37
2019-05-10T10:30:17.759Z,11.40
2019-05-10T10:32:44.896Z,11.00
2019-05-10T10:35:18.991Z,10.87
2019-05-10T10:37:48.620Z,10.53
2019-05-10T10:40:19.343Z,11.47
2019-05-10T10:42:51.864Z,12.40
2019-05-10T10:45:22.835Z,11.67
2019-05-10T10:47:53.517Z,12.47
2019-05-10T10:50:24.163Z,12.50
2019-05-10T10:52:57.350Z,11.67
2019-05-10T10:55:30.579Z,12.20
2019-05-10T10:58:01.233Z,10.90
2019-05-10T11:00:38.791Z,10.53
2019-05-10T11:03:08.543Z,12.03
2019-05-10T11:05:40.649Z,11.00
2019-05-10T11:08:12.959Z,11.60
2019-05-10T11:10:45.201Z,10.70
2019-05-10T11:13:23.789Z,12.00
2019-05-10T11:15:48.403Z,11.47
2019-05-10T11:18:21.420Z,11.30
2019-05-10T11:20:53.930Z,12.30
2019-05-10T11:23:33.118Z,12.60
2019-05-10T11:25:56.733Z,11.80
2019-05-10T11:28:32.028Z,12.70
2019-05-10T11:31:01.141Z,11.20
2019-05-10T11:33:33.733Z,11.27
2019-05-10T11:36:08.676Z,12.37
2019-05-10T11:38:37.055Z,11.60
2019-05-10T11:41:13.071Z,11.13
2019-05-10T11:43:41.993Z,12.50
2019-05-10T11:46:14.722Z,11.57
2019-05-10T11:48:45.465Z,12.00
2019-05-10T11:51:17.577Z,10.70
2019-05-10T11:53:49.163Z,10.20
2019-05-10T11:56:27.398Z,10.33
2019-05-10T11:58:55.595Z,9.60
2019-05-10T12:01:26.246Z,10.60
2019-05-10T12:03:56.755Z,12.23
2019-05-10T12:06:27.701Z,13.07
2019-05-10T12:09:02.143Z,14.17
2019-05-10T12:14:04.004Z,18.20
2019-05-10T12:16:34.929Z,15.53
2019-05-10T12:21:38.426Z,11.90
2019-05-10T12:24:32.427Z,15.30
2019-05-10T12:26:19.459Z,14.10
2019-05-10T12:26:49.306Z,17.87
2019-05-10T12:29:17.107Z,16.90
2019-05-10T12:31:55.082Z,15.57
2019-05-10T12:34:20.717Z,20.47
2019-05-10T12:36:52.053Z,14.47
2019-05-10T12:39:23.117Z,14.67
2019-05-10T12:41:53.904Z,12.00
2019-05-10T12:44:24.667Z,10.37
2019-05-10T12:46:55.238Z,10.57
2019-05-10T12:49:25.903Z,11.53
2019-05-10T12:51:59.204Z,11.87
2019-05-10T12:54:31.623Z,14.53
2019-05-10T12:57:02.618Z,14.67
2019-05-10T12:59:34.946Z,12.03
2019-05-10T13:02:13.006Z,11.00
2019-05-10T13:04:47.348Z,12.27
2019-05-10T13:07:15.802Z,13.37
2019-05-10T13:09:49.907Z,12.60
2019-05-10T13:12:19.946Z,11.03
2019-05-10T13:14:52.926Z,11.20
2019-05-10T13:17:22.898Z,11.53
2019-05-10T13:19:58.435Z,13.33
2019-05-10T13:22:26.136Z,13.70
2019-05-10T13:24:56.886Z,12.53
2019-05-10T13:27:27.472Z,13.30
2019-05-10T13:29:58.032Z,13.00
2019-05-10T13:32:28.689Z,11.30
2019-05-10T13:34:59.349Z,11.47
2019-05-10T13:37:29.975Z,13.30
2019-05-10T13:40:05.422Z,10.50
2019-05-10T13:42:36.805Z,9.87
2019-05-10T13:45:05.190Z,11.60
2019-05-10T13:47:35.968Z,12.20
2019-05-10T13:50:06.920Z,11.30
2019-05-10T13:52:40.901Z,11.37
2019-05-10T13:55:10.152Z,11.70
2019-05-10T13:57:41.065Z,13.50
2019-05-10T14:00:13.734Z,13.13
2019-05-10T14:02:44.815Z,12.67
2019-05-10T14:05:17.584Z,12.93
2019-05-10T14:07:52.011Z,11.80
2019-05-10T14:10:23.221Z,12.10
2019-05-10T14:12:55.893Z,11.93
2019-05-10T14:15:25.188Z,13.40
2019-05-10T14:17:57.050Z,12.60
2019-05-10T14:20:27.909Z,12.03
2019-05-10T14:23:00.016Z,13.90
2019-05-10T14:25:36.225Z,11.30
2019-05-10T14:28:09.642Z,9.63
2019-05-10T14:30:36.641Z,9.53
2019-05-10T14:33:08.652Z,9.50
2019-05-10T14:35:39.692Z,11.00
2019-05-10T14:38:10.671Z,10.20
2019-05-10T14:40:41.534Z,9.67
2019-05-10T14:43:12.413Z,9.80
2019-05-10T14:45:43.219Z,9.30
2019-05-10T14:48:14.094Z,8.27
2019-05-10T14:50:46.656Z,10.20
2019-05-10T14:53:19.812Z,10.10
2019-05-10T14:55:50.246Z,10.00
2019-05-10T14:58:21.150Z,9.87
2019-05-10T15:00:52.158Z,10.33
2019-05-10T15:03:22.780Z,12.80
2019-05-10T15:05:55.538Z,11.93
2019-05-10T15:08:25.876Z,11.90
2019-05-10T15:10:57.316Z,15.50
2019-05-10T15:13:29.320Z,20.87
2019-05-10T15:16:00.055Z,19.77
2019-05-10T15:18:30.588Z,18.40
2019-05-10T15:21:01.284Z,16.70
2019-05-10T15:23:32.188Z,17.60
2019-05-10T15:26:10.554Z,16.23
2019-05-10T15:28:40.415Z,14.40
2019-05-10T15:31:07.996Z,15.17
2019-05-10T15:33:38.778Z,13.97
2019-05-10T15:36:10.670Z,13.50
2019-05-10T15:38:50.148Z,13.37
2019-05-10T15:41:16.835Z,14.20
2019-05-10T15:44:07.214Z,12.27
2019-05-10T15:46:42.400Z,12.83
2019-05-10T15:49:13.491Z,15.23
2019-05-10T15:51:49.149Z,15.60
2019-05-10T15:54:16.138Z,13.00
2019-05-10T15:56:46.869Z,13.37
2019-05-10T15:59:19.289Z,11.17
2019-05-10T16:01:49.974Z,8.67
2019-05-10T16:04:20.848Z,8.77
2019-05-10T16:06:51.502Z,8.80
2019-05-10T16:09:21.988Z,8.93
2019-05-10T16:11:56.021Z,11.00
2019-05-10T16:14:27.063Z,11.33
2019-05-10T16:16:57.613Z,10.87
2019-05-10T16:19:28.348Z,11.90
2019-05-10T16:21:58.888Z,11.90
2019-05-10T16:24:29.473Z,12.33
2019-05-10T16:27:01.855Z,11.37
2019-05-10T16:29:33.776Z,12.33
2019-05-10T16:32:05.407Z,11.03
2019-05-10T16:34:36.898Z,12.60
2019-05-10T16:37:07.662Z,12.07
2019-05-10T16:39:38.453Z,13.80
2019-05-10T16:42:09.541Z,13.57
2019-05-10T16:44:41.887Z,14.70
2019-05-10T16:47:13.986Z,14.50
2019-05-10T16:49:47.808Z,15.00
2019-05-10T16:52:19.512Z,13.80
2019-05-10T16:54:49.639Z,15.40
2019-05-10T16:57:20.415Z,15.90
2019-05-10T16:59:53.429Z,15.43
2019-05-10T17:02:24.437Z,17.00
2019-05-10T17:04:55.124Z,16.90
2019-05-10T17:07:25.701Z,18.80
2019-05-10T17:09:56.339Z,18.37
2019-05-10T17:12:28.152Z,17.77
2019-05-10T17:15:02.809Z,15.10
2019-05-10T17:17:37.195Z,15.97
2019-05-10T17:20:07.563Z,15.57
2019-05-10T17:22:35.834Z,16.37
2019-05-10T17:25:07.804Z,15.53
2019-05-10T17:27:38.642Z,14.90
2019-05-10T17:30:09.540Z,15.47
2019-05-10T17:32:40.003Z,16.97
2019-05-10T17:35:10.537Z,16.03
2019-05-10T17:37:41.016Z,19.00
2019-05-10T17:40:12.275Z,20.53
2019-05-10T17:42:43.300Z,19.93
2019-05-10T17:45:13.941Z,17.33
2019-05-10T17:47:44.446Z,16.77
2019-05-10T17:50:15.961Z,14.73
2019-05-10T17:52:46.340Z,15.00
2019-05-10T17:55:18.446Z,16.40
2019-05-10T17:57:54.798Z,14.90
2019-05-10T18:00:22.106Z,15.30
2019-05-10T18:02:52.513Z,15.33
2019-05-10T18:05:22.902Z,16.00
2019-05-10T18:07:53.268Z,15.47
2019-05-10T18:10:23.669Z,15.90
2019-05-10T18:12:57.284Z,17.93
2019-05-10T18:15:27.750Z,17.37
2019-05-10T18:18:02.657Z,17.17
2019-05-10T18:20:41.206Z,16.30
2019-05-10T18:23:03.499Z,16.17
2019-05-10T18:25:34.098Z,16.50
2019-05-10T18:28:04.839Z,16.30
2019-05-10T18:30:35.561Z,16.43
2019-05-10T18:33:11.555Z,16.33
2019-05-10T18:35:39.297Z,17.77
2019-05-10T18:38:11.455Z,17.00
2019-05-10T18:40:42.170Z,17.77
2019-05-10T18:43:13.011Z,19.07
2019-05-10T18:45:43.932Z,17.77
2019-05-10T18:48:14.518Z,19.07
2019-05-10T18:50:47.238Z,18.50
2019-05-10T18:53:17.708Z,17.70
2019-05-10T18:55:49.369Z,17.10
2019-05-10T18:58:23.286Z,17.50
2019-05-10T19:00:56.152Z,16.37
2019-05-10T19:03:28.043Z,15.37
2019-05-10T19:05:56.596Z,13.17
2019-05-10T19:08:27.267Z,13.73
2019-05-10T19:10:57.827Z,12.80
2019-05-10T19:13:32.646Z,13.17
2019-05-10T19:16:00.843Z,12.93
2019-05-10T19:18:31.637Z,11.97
2019-05-10T19:21:02.761Z,12.23
2019-05-10T19:23:33.758Z,11.30
2019-05-10T19:26:04.416Z,12.53
2019-05-10T19:28:35.091Z,12.37
2019-05-10T19:31:05.642Z,12.80
2019-05-10T19:33:38.063Z,11.47
2019-05-10T19:36:13.050Z,11.73
2019-05-10T19:38:41.583Z,11.67
2019-05-10T19:41:12.217Z,13.00
2019-05-10T19:43:42.983Z,13.20
2019-05-10T19:46:14.910Z,11.23
2019-05-10T19:48:45.537Z,10.47
2019-05-10T19:51:16.483Z,11.03
2019-05-10T19:53:47.106Z,10.30
2019-05-10T19:56:18.241Z,12.23
2019-05-10T19:58:49.481Z,11.13
2019-05-10T20:01:20.440Z,10.53
2019-05-10T20:03:51.572Z,10.37
2019-05-10T20:06:22.352Z,11.03
2019-05-10T20:08:52.856Z,10.73
2019-05-10T20:11:23.714Z,9.60
2019-05-10T20:13:54.504Z,11.07
2019-05-10T20:16:25.116Z,11.80
2019-05-10T20:18:55.958Z,12.20
2019-05-10T20:21:26.968Z,11.93
2019-05-10T20:23:57.706Z,13.03
2019-05-10T20:26:28.275Z,15.20
2019-05-10T20:29:00.249Z,16.27
2019-05-10T20:31:30.997Z,16.20
2019-05-10T20:34:01.801Z,17.03
2019-05-10T20:36:32.273Z,17.73
2019-05-10T20:39:05.737Z,12.77
2019-05-10T20:41:37.086Z,12.33
2019-05-10T20:44:08.952Z,12.43
2019-05-10T20:46:39.547Z,13.23
2019-05-10T20:49:10.575Z,14.30
2019-05-10T20:51:41.212Z,13.93
2019-05-10T20:54:11.905Z,15.77
2019-05-10T20:56:42.623Z,15.47
2019-05-10T20:59:13.239Z,15.60
2019-05-10T21:01:43.698Z,16.03
2019-05-10T21:04:14.590Z,16.97
2019-05-10T21:06:45.163Z,17.07
2019-05-10T21:09:18.439Z,19.80
2019-05-10T21:11:49.264Z,19.40
2019-05-10T21:14:19.757Z,20.00
2019-05-10T21:16:50.313Z,22.37
2019-05-10T21:19:33.396Z,22.33
2019-05-10T21:22:05.275Z,23.60
2019-05-10T21:24:36.993Z,20.50
2019-05-10T21:27:07.945Z,20.53
2019-05-10T21:29:38.524Z,20.43
2019-05-10T21:32:10.141Z,17.73
2019-05-10T21:34:40.910Z,17.60
2019-05-10T21:37:11.656Z,16.80
2019-05-10T21:39:42.338Z,13.37
2019-05-10T21:42:14.076Z,13.80
2019-05-10T21:44:44.656Z,13.17
2019-05-10T21:47:16.111Z,15.27
2019-05-10T21:49:47.155Z,16.93
2019-05-10T21:52:17.771Z,17.97
2019-05-10T21:54:48.459Z,20.27
2019-05-10T21:57:19.225Z,21.70
2019-05-10T21:59:50.293Z,20.80
2019-05-10T22:02:20.937Z,23.07
2019-05-10T22:04:51.716Z,20.07
2019-05-10T22:07:22.472Z,20.70
2019-05-10T22:09:53.165Z,22.47
2019-05-10T22:12:24.035Z,24.97
2019-05-10T22:14:55.027Z,26.73
2019-05-10T22:17:25.664Z,30.07
2019-05-10T22:19:56.495Z,33.93
2019-05-10T22:22:27.204Z,33.30
2019-05-10T22:24:57.865Z,37.00
2019-05-10T22:27:28.549Z,36.10
2019-05-10T22:29:59.324Z,37.23
2019-05-10T22:32:30.148Z,35.90
2019-05-10T22:35:01.122Z,32.60
2019-05-10T22:37:31.876Z,30.27
2019-05-10T22:40:02.440Z,30.57
2019-05-10T22:42:33.134Z,31.30
2019-05-10T22:45:04.256Z,31.93
2019-05-10T22:47:34.657Z,33.80
2019-05-10T22:50:05.422Z,36.20
2019-05-10T22:52:36.077Z,37.67
2019-05-10T22:55:06.994Z,38.03
2019-05-10T22:57:37.552Z,36.60
2019-05-10T23:00:09.569Z,34.27
2019-05-10T23:02:40.237Z,30.20
2019-05-10T23:05:11.515Z,31.00
2019-05-10T23:07:42.162Z,28.30
2019-05-10T23:10:13.110Z,23.83
2019-05-10T23:12:43.964Z,23.40
2019-05-10T23:15:16.888Z,22.30
2019-05-10T23:17:47.540Z,23.20
2019-05-10T23:20:18.216Z,23.73
2019-05-10T23:22:49.199Z,25.57
2019-05-10T23:25:19.790Z,24.10
2019-05-10T23:27:50.539Z,22.20
2019-05-10T23:30:21.410Z,21.10
2019-05-10T23:32:51.798Z,20.77
2019-05-10T23:35:22.333Z,18.97
2019-05-10T23:37:53.075Z,18.50
2019-05-10T23:40:23.928Z,18.50
2019-05-10T23:42:56.168Z,17.60
2019-05-10T23:45:26.913Z,17.10
2019-05-10T23:47:57.589Z,16.50
2019-05-10T23:50:28.113Z,18.27
2019-05-10T23:52:58.737Z,17.87
2019-05-10T23:55:29.652Z,18.70
2019-05-10T23:58:00.340Z,18.67
